Penrose, Utah
Current Conditions -  °F | °C
As of 10:35 PM on Saturday 25 Oct 2014 (Local Time) from KBMC Reporting Station
Clear Clear  
Wind Chill: 69°   Ceiling: Unl
Heat Index: 69°   Visibility: 10mi
Dew Point: 35°   Wind: 17mph
Humidity: 28%   Direction: 180°S
Pressure: 29.87"   Gusts: 24mph
Location:  41.6836°N, 112.26°W
Report Text: KBMC 260435Z AUTO 18015G21KT 10SM CLR 21/01 A2987 RMK AO1 T02070014
Loading
Personal Weather Stations






























Interactive Weather Map
Tropical Storm Tracking
New forecast layout! Learn more

10-Day Weather Forecast

Advertisements
Track Severe Weather on mobile